Time;durP1;ratioP1;P1;durP2;ratioP2;P2;SDS_P1;SDS_P2;PMS_P1;PMS_P2;Temp;Humidity;BMP_temperature;BMP_pressure;BME280_temperature;BME280_humidity;BME280_pressure;Samples;Min_cycle;Max_cycle;Signal;HPM_P1;HPM_P2
2022/06/04 00:00:08;;;;;;;;;;;;;;;;;;5058751;28;19924;-23
2022/06/04 00:02:35;;;;;;;;;;;;;;;;;;5058664;28;19981;-23
2022/06/04 00:05:02;;;;;;;;;;;;;;;;;;5041197;28;19920;-23
2022/06/04 00:07:28;;;;;;;;;;;;;;;;;;5058936;28;20270;-23
2022/06/04 00:15:32;;;;;;;;;;;;;;;;;;5058371;28;19924;-24
2022/06/04 00:17:59;;;;;;;;;;;;;;;;;;5058195;28;20007;-23
2022/06/04 00:20:26;;;;;;;;;;;;;;;;;;5058710;28;19924;-23
2022/06/04 00:22:53;;;;;;;;;;;;;;;;;;5059184;28;19909;-23
2022/06/04 00:25:20;;;;;;;;;;;;;;;;;;5058753;28;20339;-22
2022/06/04 00:30:37;;;;;;;;;;;;;;;;;;5058917;28;19924;-23
2022/06/04 00:33:03;;;;;;;;;;;;;;;;;;5040582;28;19913;-23
2022/06/04 00:35:30;;;;;;;;;;;;;;;;;;5040496;28;19924;-22
2022/06/04 00:37:56;;;;;;;;;;;;;;;;;;5058339;28;20046;-23
2022/06/04 00:40:23;;;;;;;;;;;;;;;;;;5058421;28;19909;-22
2022/06/04 00:42:50;;;;;;;;;;;;;;;;;;5039652;28;19912;-22
2022/06/04 00:45:33;;;;;;;;;;;;;;;;;;5039759;28;19940;-22
2022/06/04 00:50:51;;;;;;;;;;;;;;;;;;5058283;28;19939;-22
2022/06/04 00:56:10;;;;;;;;;;;;;;;;;;5055951;28;20286;-22
2022/06/04 01:09:48;;;;;;;;;;;;;;;;;;5059637;28;19946;-23
2022/06/04 01:15:00;;;;;;;;;;;;;;;;;;5058736;28;19916;-23
2022/06/04 01:17:33;;;;;;;;;;;;;;;;;;5040139;28;19917;-23
2022/06/04 01:19:59;;;;;;;;;;;;;;;;;;5039825;28;20288;-23
2022/06/04 01:22:26;;;;;;;;;;;;;;;;;;5057716;28;19913;-23
2022/06/04 01:24:53;;;;;;;;;;;;;;;;;;5057584;28;19923;-23
2022/06/04 01:27:19;;;;;;;;;;;;;;;;;;5058014;28;19913;-23
2022/06/04 01:29:46;;;;;;;;;;;;;;;;;;5039517;28;20363;-23
2022/06/04 01:32:13;;;;;;;;;;;;;;;;;;5040630;28;20008;-23
2022/06/04 01:34:40;;;;;;;;;;;;;;;;;;5039617;28;19913;-23
2022/06/04 01:37:08;;;;;;;;;;;;;;;;;;5056962;28;19940;-31
2022/06/04 01:41:03;;;;;;;;;;;;;;;;;;5054298;28;19928;-24
2022/06/04 01:42:22;;;;;;;;;;;;;;;;;;5058194;28;19947;-23
2022/06/04 01:44:51;;;;;;;;;;;;;;;;;;5056136;28;19920;-23
2022/06/04 01:47:17;;;;;;;;;;;;;;;;;;5057966;28;19958;-23
2022/06/04 01:49:45;;;;;;;;;;;;;;;;;;5056800;28;20345;-23
2022/06/04 01:52:12;;;;;;;;;;;;;;;;;;5056792;28;19924;-23
2022/06/04 01:54:38;;;;;;;;;;;;;;;;;;5061557;28;19917;-24
2022/06/04 01:57:05;;;;;;;;;;;;;;;;;;5061848;28;19917;-24
2022/06/04 01:59:32;;;;;;;;;;;;;;;;;;5061254;28;19913;-24
2022/06/04 02:01:59;;;;;;;;;;;;;;;;;;5062216;28;19923;-23
2022/06/04 02:04:25;;;;;;;;;;;;;;;;;;5060123;28;19913;-23
2022/06/04 02:12:21;;;;;;;;;;;;;;;;;;5060549;28;19967;-23
2022/06/04 02:14:48;;;;;;;;;;;;;;;;;;5060105;28;20004;-23
2022/06/04 02:33:54;;;;;;;;;;;;;;;;;;5213874;22;20375;-23
2022/06/04 02:36:21;;;;;;;;;;;;;;;;;;5042561;28;19931;-23
2022/06/04 02:39:07;;;;;;;;;;;;;;;;;;5043572;28;19923;-24
2022/06/04 02:44:25;;;;;;;;;;;;;;;;;;5041638;28;20025;-23
2022/06/04 02:46:52;;;;;;;;;;;;;;;;;;5023102;28;19968;-23
2022/06/04 02:49:19;;;;;;;;;;;;;;;;;;5040444;28;19913;-23
2022/06/04 02:51:46;;;;;;;;;;;;;;;;;;5041213;28;19909;-23
2022/06/04 02:54:12;;;;;;;;;;;;;;;;;;5040795;28;19948;-24
2022/06/04 02:56:39;;;;;;;;;;;;;;;;;;5022291;28;19927;-23
2022/06/04 02:59:06;;;;;;;;;;;;;;;;;;5040701;28;20008;-24
2022/06/04 03:01:34;;;;;;;;;;;;;;;;;;5040065;28;19963;-24
2022/06/04 03:04:01;;;;;;;;;;;;;;;;;;5039169;28;19913;-24
2022/06/04 03:06:28;;;;;;;;;;;;;;;;;;5040148;28;19909;-26
2022/06/04 03:08:54;;;;;;;;;;;;;;;;;;5040408;28;19918;-24
2022/06/04 03:11:21;;;;;;;;;;;;;;;;;;5039955;28;19913;-23
2022/06/04 03:13:48;;;;;;;;;;;;;;;;;;5039847;28;20298;-27
2022/06/04 03:16:14;;;;;;;;;;;;;;;;;;5039802;28;19917;-23
2022/06/04 03:18:42;;;;;;;;;;;;;;;;;;5022371;28;19967;-26
2022/06/04 03:21:09;;;;;;;;;;;;;;;;;;5022448;28;20259;-26
2022/06/04 03:23:35;;;;;;;;;;;;;;;;;;5039554;28;19913;-25
2022/06/04 03:26:02;;;;;;;;;;;;;;;;;;5039646;28;19910;-27
2022/06/04 03:28:29;;;;;;;;;;;;;;;;;;5039979;28;20321;-24
2022/06/04 03:30:56;;;;;;;;;;;;;;;;;;5022246;28;20260;-27
2022/06/04 03:33:23;;;;;;;;;;;;;;;;;;5039475;28;19956;-23
2022/06/04 03:35:50;;;;;;;;;;;;;;;;;;5039876;28;20406;-24
2022/06/04 03:38:16;;;;;;;;;;;;;;;;;;5039780;28;19909;-27
2022/06/04 03:40:43;;;;;;;;;;;;;;;;;;5039256;28;19924;-30
2022/06/04 03:43:10;;;;;;;;;;;;;;;;;;5039122;28;19944;-26
2022/06/04 03:45:37;;;;;;;;;;;;;;;;;;5021420;28;19975;-27
2022/06/04 03:48:04;;;;;;;;;;;;;;;;;;5038614;28;19909;-27
2022/06/04 03:50:32;;;;;;;;;;;;;;;;;;5038583;28;20255;-28
2022/06/04 03:52:58;;;;;;;;;;;;;;;;;;5038659;28;19938;-28
2022/06/04 03:55:25;;;;;;;;;;;;;;;;;;5021382;28;19959;-33
2022/06/04 03:57:52;;;;;;;;;;;;;;;;;;5038616;28;19913;-29
2022/06/04 04:05:56;;;;;;;;;;;;;;;;;;5038632;28;19981;-26
2022/06/04 04:11:13;;;;;;;;;;;;;;;;;;5039501;28;19924;-30
2022/06/04 04:13:52;;;;;;;;;;;;;;;;;;5039892;28;19978;-27
2022/06/04 04:16:28;;;;;;;;;;;;;;;;;;5039598;28;19957;-24
2022/06/04 04:19:06;;;;;;;;;;;;;;;;;;5038698;28;19913;-25
2022/06/04 04:21:48;;;;;;;;;;;;;;;;;;5016551;28;19913;-27
2022/06/04 04:24:22;;;;;;;;;;;;;;;;;;5037873;28;19974;-28
2022/06/04 04:26:54;;;;;;;;;;;;;;;;;;5037430;28;21341;-31
2022/06/04 04:32:11;;;;;;;;;;;;;;;;;;5041133;28;19956;-27
2022/06/04 04:34:39;;;;;;;;;;;;;;;;;;5038366;28;19971;-26
2022/06/04 04:39:45;;;;;;;;;;;;;;;;;;5037071;28;19925;-23
2022/06/04 04:42:12;;;;;;;;;;;;;;;;;;5037826;28;19912;-24
2022/06/04 04:44:39;;;;;;;;;;;;;;;;;;5036427;28;19920;-24
2022/06/04 04:47:06;;;;;;;;;;;;;;;;;;5036764;28;19921;-23
2022/06/04 04:49:33;;;;;;;;;;;;;;;;;;5020108;28;19913;-24
2022/06/04 04:52:00;;;;;;;;;;;;;;;;;;5037868;28;19919;-23
2022/06/04 04:54:27;;;;;;;;;;;;;;;;;;5038043;28;19913;-24
2022/06/04 04:56:55;;;;;;;;;;;;;;;;;;5019774;28;20262;-23
2022/06/04 04:59:21;;;;;;;;;;;;;;;;;;5037800;28;20308;-24
2022/06/04 05:01:48;;;;;;;;;;;;;;;;;;5038051;28;19953;-24
2022/06/04 05:04:15;;;;;;;;;;;;;;;;;;5037488;28;19995;-24
2022/06/04 05:06:42;;;;;;;;;;;;;;;;;;5020361;28;19927;-24
2022/06/04 05:09:08;;;;;;;;;;;;;;;;;;5019792;28;19924;-23
2022/06/04 05:11:35;;;;;;;;;;;;;;;;;;5037535;28;19987;-24
2022/06/04 05:14:02;;;;;;;;;;;;;;;;;;5020002;28;19913;-24
2022/06/04 05:16:29;;;;;;;;;;;;;;;;;;5037105;28;19913;-24
2022/06/04 05:18:56;;;;;;;;;;;;;;;;;;5037534;28;19936;-24
2022/06/04 05:21:23;;;;;;;;;;;;;;;;;;5037110;28;20258;-25
2022/06/04 05:23:50;;;;;;;;;;;;;;;;;;5036849;28;19913;-25
2022/06/04 05:26:16;;;;;;;;;;;;;;;;;;5019657;28;19920;-25
2022/06/04 05:28:44;;;;;;;;;;;;;;;;;;5036548;28;19913;-25
2022/06/04 05:31:11;;;;;;;;;;;;;;;;;;5036378;28;19909;-25
2022/06/04 05:33:37;;;;;;;;;;;;;;;;;;5036606;28;19998;-25
2022/06/04 05:36:04;;;;;;;;;;;;;;;;;;5036819;28;19940;-25
2022/06/04 05:38:35;;;;;;;;;;;;;;;;;;5025311;28;20338;-25
2022/06/04 05:41:02;;;;;;;;;;;;;;;;;;5036981;28;19955;-25
2022/06/04 05:43:29;;;;;;;;;;;;;;;;;;5035490;28;19914;-25
2022/06/04 05:45:55;;;;;;;;;;;;;;;;;;5036570;28;20255;-24
2022/06/04 05:48:22;;;;;;;;;;;;;;;;;;5035726;28;19919;-25
2022/06/04 05:50:49;;;;;;;;;;;;;;;;;;5037241;28;19982;-25
2022/06/04 05:53:16;;;;;;;;;;;;;;;;;;5036406;28;20351;-25
2022/06/04 05:55:43;;;;;;;;;;;;;;;;;;5036918;28;20381;-24
2022/06/04 05:58:10;;;;;;;;;;;;;;;;;;5035999;28;20262;-24
2022/06/04 06:00:43;;;;;;;;;;;;;;;;;;5034732;28;19913;-24
2022/06/04 06:06:15;;;;;;;;;;;;;;;;;;5036014;28;19936;-25
2022/06/04 06:08:55;;;;;;;;;;;;;;;;;;5034262;28;19979;-26
2022/06/04 06:14:13;;;;;;;;;;;;;;;;;;5034801;28;19925;-25
2022/06/04 06:16:47;;;;;;;;;;;;;;;;;;5034108;28;19917;-25
2022/06/04 06:19:17;;;;;;;;;;;;;;;;;;5034317;28;19921;-25
2022/06/04 06:21:49;;;;;;;;;;;;;;;;;;5034516;28;19985;-26
2022/06/04 06:24:17;;;;;;;;;;;;;;;;;;5034670;28;19924;-25
2022/06/04 06:29:36;;;;;;;;;;;;;;;;;;5035426;28;20043;-25
2022/06/04 06:32:06;;;;;;;;;;;;;;;;;;5037680;28;19913;-25
2022/06/04 06:34:40;;;;;;;;;;;;;;;;;;5035870;28;19939;-25
2022/06/04 06:37:14;;;;;;;;;;;;;;;;;;5040285;28;19924;-25
2022/06/04 06:39:56;;;;;;;;;;;;;;;;;;5041577;28;19957;-25
2022/06/04 06:42:27;;;;;;;;;;;;;;;;;;5026683;28;19967;-25
2022/06/04 06:44:55;;;;;;;;;;;;;;;;;;5023766;28;19947;-26
2022/06/04 06:47:21;;;;;;;;;;;;;;;;;;5037504;28;19906;-26
2022/06/04 06:49:47;;;;;;;;;;;;;;;;;;5019932;28;20015;-26
2022/06/04 06:52:16;;;;;;;;;;;;;;;;;;5038485;28;19906;-23
2022/06/04 06:54:43;;;;;;;;;;;;;;;;;;5040216;28;19979;-23
2022/06/04 06:57:09;;;;;;;;;;;;;;;;;;5040146;28;19920;-24
2022/06/04 06:59:36;;;;;;;;;;;;;;;;;;5039965;28;19917;-24
2022/06/04 07:02:04;;;;;;;;;;;;;;;;;;5039573;28;19905;-24
2022/06/04 07:04:36;;;;;;;;;;;;;;;;;;5035771;28;19921;-24
2022/06/04 07:07:03;;;;;;;;;;;;;;;;;;5039994;28;19909;-23
2022/06/04 07:12:31;;;;;;;;;;;;;;;;;;5041119;28;19920;-24
2022/06/04 07:15:01;;;;;;;;;;;;;;;;;;5040976;28;19913;-24
2022/06/04 07:17:32;;;;;;;;;;;;;;;;;;5040985;28;19985;-24
2022/06/04 07:20:04;;;;;;;;;;;;;;;;;;5039858;28;19913;-25
2022/06/04 07:22:32;;;;;;;;;;;;;;;;;;5038976;28;19921;-24
2022/06/04 07:24:59;;;;;;;;;;;;;;;;;;5039184;28;19919;-25
2022/06/04 07:27:26;;;;;;;;;;;;;;;;;;5021860;28;20255;-25
2022/06/04 07:29:53;;;;;;;;;;;;;;;;;;5039691;28;19913;-24
2022/06/04 07:32:20;;;;;;;;;;;;;;;;;;5039426;28;19909;-26
2022/06/04 07:34:47;;;;;;;;;;;;;;;;;;5038811;28;19974;-25
2022/06/04 07:37:14;;;;;;;;;;;;;;;;;;5021149;28;19913;-25
2022/06/04 07:39:40;;;;;;;;;;;;;;;;;;5036536;28;20359;-25
2022/06/04 07:42:07;;;;;;;;;;;;;;;;;;5039040;28;20340;-25
2022/06/04 07:44:33;;;;;;;;;;;;;;;;;;5038614;28;19913;-25
2022/06/04 07:47:01;;;;;;;;;;;;;;;;;;5038772;28;19996;-25
2022/06/04 07:49:28;;;;;;;;;;;;;;;;;;5037814;28;20239;-25
2022/06/04 07:54:39;;;;;;;;;;;;;;;;;;5039091;28;19952;-25
2022/06/04 07:57:06;;;;;;;;;;;;;;;;;;5038340;28;19928;-25
2022/06/04 08:02:17;;;;;;;;;;;;;;;;;;5037422;28;19919;-25
2022/06/04 08:04:43;;;;;;;;;;;;;;;;;;5038377;28;19913;-25
2022/06/04 08:21:23;;;;;;;;;;;;;;;;;;5039705;28;19920;-25
2022/06/04 08:32:18;;;;;;;;;;;;;;;;;;5035874;28;19975;-25
2022/06/04 08:34:46;;;;;;;;;;;;;;;;;;5039665;28;19928;-25
2022/06/04 08:39:46;;;;;;;;;;;;;;;;;;5036258;28;20018;-24
2022/06/04 08:42:13;;;;;;;;;;;;;;;;;;5035661;28;20008;-23
2022/06/04 08:44:40;;;;;;;;;;;;;;;;;;5035731;28;19963;-23
2022/06/04 08:47:07;;;;;;;;;;;;;;;;;;5036742;28;19921;-24
2022/06/04 08:49:34;;;;;;;;;;;;;;;;;;5035337;28;19944;-23
2022/06/04 08:52:02;;;;;;;;;;;;;;;;;;5036689;28;20304;-24
2022/06/04 08:59:58;;;;;;;;;;;;;;;;;;5036866;28;19971;-23
2022/06/04 09:02:25;;;;;;;;;;;;;;;;;;5034477;28;19913;-24
2022/06/04 09:04:52;;;;;;;;;;;;;;;;;;5035150;28;19989;-23
2022/06/04 09:07:19;;;;;;;;;;;;;;;;;;5035375;28;19939;-23
2022/06/04 09:09:47;;;;;;;;;;;;;;;;;;5037607;28;20244;-24
2022/06/04 09:12:14;;;;;;;;;;;;;;;;;;5037594;28;19976;-24
2022/06/04 09:14:41;;;;;;;;;;;;;;;;;;5037582;28;19909;-24
2022/06/04 09:17:08;;;;;;;;;;;;;;;;;;5036871;28;20116;-24
2022/06/04 09:19:35;;;;;;;;;;;;;;;;;;5037666;28;19999;-25
2022/06/04 09:22:02;;;;;;;;;;;;;;;;;;5035953;28;19913;-24
2022/06/04 09:24:30;;;;;;;;;;;;;;;;;;5037296;28;19913;-25
2022/06/04 09:26:56;;;;;;;;;;;;;;;;;;5037094;28;19917;-24
2022/06/04 09:29:24;;;;;;;;;;;;;;;;;;5036105;28;19917;-24
2022/06/04 09:31:51;;;;;;;;;;;;;;;;;;5035823;28;19913;-24
2022/06/04 09:34:19;;;;;;;;;;;;;;;;;;5036889;28;20008;-24
2022/06/04 09:36:46;;;;;;;;;;;;;;;;;;5035848;28;19978;-24
2022/06/04 09:39:13;;;;;;;;;;;;;;;;;;5036920;28;20337;-24
2022/06/04 09:41:40;;;;;;;;;;;;;;;;;;5035983;28;20007;-24
2022/06/04 09:44:08;;;;;;;;;;;;;;;;;;5036995;28;20418;-27
2022/06/04 09:46:35;;;;;;;;;;;;;;;;;;5035821;28;19916;-24
2022/06/04 09:49:02;;;;;;;;;;;;;;;;;;5036455;28;19935;-24
2022/06/04 09:51:33;;;;;;;;;;;;;;;;;;5036988;28;19949;-24
2022/06/04 09:54:02;;;;;;;;;;;;;;;;;;5035710;28;19980;-24
2022/06/04 09:56:29;;;;;;;;;;;;;;;;;;5037188;28;19974;-24
2022/06/04 09:58:56;;;;;;;;;;;;;;;;;;5035452;28;19941;-24
2022/06/04 10:01:22;;;;;;;;;;;;;;;;;;5035941;28;20011;-24
2022/06/04 10:03:49;;;;;;;;;;;;;;;;;;5035851;28;19979;-24
2022/06/04 10:06:16;;;;;;;;;;;;;;;;;;5036908;28;19913;-25
2022/06/04 10:11:27;;;;;;;;;;;;;;;;;;5036629;28;19948;-24
2022/06/04 10:13:55;;;;;;;;;;;;;;;;;;5036435;28;19913;-24
2022/06/04 10:16:22;;;;;;;;;;;;;;;;;;5041212;28;20351;-24
2022/06/04 10:18:49;;;;;;;;;;;;;;;;;;5040764;28;19924;-24
2022/06/04 10:21:16;;;;;;;;;;;;;;;;;;5040813;28;19916;-25
2022/06/04 10:23:43;;;;;;;;;;;;;;;;;;5040570;28;20009;-24
2022/06/04 10:26:10;;;;;;;;;;;;;;;;;;5041022;28;20284;-24
2022/06/04 10:28:37;;;;;;;;;;;;;;;;;;5040542;28;20299;-24
2022/06/04 10:31:04;;;;;;;;;;;;;;;;;;5039735;28;19971;-25
2022/06/04 10:33:30;;;;;;;;;;;;;;;;;;5040702;28;19920;-24
2022/06/04 10:35:57;;;;;;;;;;;;;;;;;;5040370;28;20008;-25
2022/06/04 10:38:26;;;;;;;;;;;;;;;;;;5038941;28;20283;-24
2022/06/04 10:40:53;;;;;;;;;;;;;;;;;;5040944;28;19936;-24
2022/06/04 10:43:21;;;;;;;;;;;;;;;;;;5040317;28;19984;-24
2022/06/04 10:45:48;;;;;;;;;;;;;;;;;;5039294;28;19913;-25
2022/06/04 10:48:15;;;;;;;;;;;;;;;;;;5040078;28;19932;-24
2022/06/04 10:53:28;;;;;;;;;;;;;;;;;;5040407;28;20450;-24
2022/06/04 10:55:56;;;;;;;;;;;;;;;;;;5040957;28;20248;-24
2022/06/04 10:58:32;;;;;;;;;;;;;;;;;;5040530;28;19913;-23
2022/06/04 11:01:09;;;;;;;;;;;;;;;;;;5040310;28;19909;-23
2022/06/04 11:03:35;;;;;;;;;;;;;;;;;;5039121;28;19971;-22
2022/06/04 11:06:02;;;;;;;;;;;;;;;;;;5040557;28;19915;-23
2022/06/04 11:08:29;;;;;;;;;;;;;;;;;;5039201;28;20370;-23
2022/06/04 11:10:56;;;;;;;;;;;;;;;;;;5038793;28;19913;-23
2022/06/04 11:13:23;;;;;;;;;;;;;;;;;;5039291;28;20363;-23
2022/06/04 11:15:50;;;;;;;;;;;;;;;;;;5040257;28;19945;-23
2022/06/04 11:18:17;;;;;;;;;;;;;;;;;;5039756;28;20363;-22
2022/06/04 11:20:44;;;;;;;;;;;;;;;;;;5040625;28;19924;-23
2022/06/04 11:23:12;;;;;;;;;;;;;;;;;;5039873;28;19919;-23
2022/06/04 11:25:39;;;;;;;;;;;;;;;;;;5039062;28;19973;-23
2022/06/04 11:28:05;;;;;;;;;;;;;;;;;;5040248;28;19913;-23
2022/06/04 11:30:33;;;;;;;;;;;;;;;;;;5039599;28;19909;-23
2022/06/04 11:32:59;;;;;;;;;;;;;;;;;;5039902;28;19921;-23
2022/06/04 11:35:26;;;;;;;;;;;;;;;;;;5038613;28;19939;-23
2022/06/04 11:37:53;;;;;;;;;;;;;;;;;;5038906;28;19974;-23
2022/06/04 11:40:21;;;;;;;;;;;;;;;;;;5040223;28;19913;-23
2022/06/04 11:42:48;;;;;;;;;;;;;;;;;;5039370;28;20382;-24
2022/06/04 11:45:15;;;;;;;;;;;;;;;;;;5040417;28;19916;-23
2022/06/04 11:47:46;;;;;;;;;;;;;;;;;;5039707;28;19913;-23
2022/06/04 11:50:14;;;;;;;;;;;;;;;;;;5039134;28;19913;-29
2022/06/04 11:52:41;;;;;;;;;;;;;;;;;;5038264;28;19923;-23
2022/06/04 11:55:08;;;;;;;;;;;;;;;;;;5038240;28;19932;-23
2022/06/04 11:57:35;;;;;;;;;;;;;;;;;;5039255;28;19935;-24
2022/06/04 12:00:01;;;;;;;;;;;;;;;;;;5039184;28;19963;-23
2022/06/04 12:02:29;;;;;;;;;;;;;;;;;;5039643;28;19909;-23
2022/06/04 12:04:56;;;;;;;;;;;;;;;;;;5039160;28;19937;-23
2022/06/04 12:07:24;;;;;;;;;;;;;;;;;;5039482;28;19920;-23
2022/06/04 12:09:55;;;;;;;;;;;;;;;;;;5038863;28;19913;-23
2022/06/04 12:12:22;;;;;;;;;;;;;;;;;;5039632;28;20348;-23
2022/06/04 12:17:41;;;;;;;;;;;;;;;;;;5039886;28;20014;-23
2022/06/04 12:28:27;;;;;;;;;;;;;;;;;;5389359;22;20355;-23
2022/06/04 12:30:54;;;;;;;;;;;;;;;;;;5058370;28;20239;-24
2022/06/04 12:33:21;;;;;;;;;;;;;;;;;;5058507;28;19967;-24
2022/06/04 12:35:48;;;;;;;;;;;;;;;;;;5040695;28;19963;-23
2022/06/04 12:38:15;;;;;;;;;;;;;;;;;;5052794;28;20263;-23
2022/06/04 12:40:41;;;;;;;;;;;;;;;;;;5078036;28;19970;-22
2022/06/04 12:43:08;;;;;;;;;;;;;;;;;;5078335;28;19927;-23
2022/06/04 12:45:35;;;;;;;;;;;;;;;;;;5078038;28;19947;-23
2022/06/04 12:48:01;;;;;;;;;;;;;;;;;;5078370;28;19920;-23
2022/06/04 12:50:28;;;;;;;;;;;;;;;;;;5078031;28;20354;-23
2022/06/04 12:52:55;;;;;;;;;;;;;;;;;;5077878;28;19922;-23
2022/06/04 12:55:22;;;;;;;;;;;;;;;;;;5078101;28;19913;-23
2022/06/04 12:57:49;;;;;;;;;;;;;;;;;;5077944;28;19909;-23
2022/06/04 13:00:20;;;;;;;;;;;;;;;;;;5077789;28;20006;-23
2022/06/04 13:02:47;;;;;;;;;;;;;;;;;;5077754;28;19912;-23
2022/06/04 13:05:15;;;;;;;;;;;;;;;;;;5059959;28;19975;-23
2022/06/04 13:07:41;;;;;;;;;;;;;;;;;;5077574;28;19913;-23
2022/06/04 13:10:08;;;;;;;;;;;;;;;;;;5077473;28;19916;-23
2022/06/04 13:12:35;;;;;;;;;;;;;;;;;;5077845;28;19998;-23
2022/06/04 13:15:02;;;;;;;;;;;;;;;;;;5077583;28;19912;-23
2022/06/04 13:17:29;;;;;;;;;;;;;;;;;;5077615;28;19916;-23
2022/06/04 13:19:56;;;;;;;;;;;;;;;;;;5059753;28;19924;-23
2022/06/04 13:22:24;;;;;;;;;;;;;;;;;;5077871;28;19995;-23
2022/06/04 13:24:50;;;;;;;;;;;;;;;;;;5077306;28;19920;-22
2022/06/04 13:27:18;;;;;;;;;;;;;;;;;;5077325;28;19912;-22
2022/06/04 13:29:46;;;;;;;;;;;;;;;;;;5056098;28;19948;-23
2022/06/04 13:32:13;;;;;;;;;;;;;;;;;;5057253;28;19909;-23
2022/06/04 13:34:40;;;;;;;;;;;;;;;;;;5057169;28;19916;-23
2022/06/04 13:37:07;;;;;;;;;;;;;;;;;;5055730;28;20003;-23
2022/06/04 13:39:38;;;;;;;;;;;;;;;;;;5057608;28;19940;-23
2022/06/04 13:42:09;;;;;;;;;;;;;;;;;;5057728;28;19909;-23
2022/06/04 13:44:36;;;;;;;;;;;;;;;;;;5057999;28;20296;-23
2022/06/04 13:47:02;;;;;;;;;;;;;;;;;;5057509;28;20263;-22
2022/06/04 13:49:30;;;;;;;;;;;;;;;;;;5056528;28;19913;-23
2022/06/04 13:51:57;;;;;;;;;;;;;;;;;;5057247;28;19909;-23
2022/06/04 13:54:23;;;;;;;;;;;;;;;;;;5057320;28;19912;-23
2022/06/04 13:56:51;;;;;;;;;;;;;;;;;;5057284;28;19912;-23
2022/06/04 13:59:17;;;;;;;;;;;;;;;;;;5057332;28;19947;-24
2022/06/04 14:01:44;;;;;;;;;;;;;;;;;;5055864;28;19916;-23
2022/06/04 14:06:55;;;;;;;;;;;;;;;;;;5057111;28;19916;-23
2022/06/04 14:09:23;;;;;;;;;;;;;;;;;;5055948;28;19970;-23
2022/06/04 14:11:51;;;;;;;;;;;;;;;;;;5057020;28;19924;-23
2022/06/04 14:14:18;;;;;;;;;;;;;;;;;;5056935;28;19916;-23
2022/06/04 14:16:44;;;;;;;;;;;;;;;;;;5056034;28;20325;-23
2022/06/04 14:19:11;;;;;;;;;;;;;;;;;;5056740;28;19908;-23
2022/06/04 14:21:39;;;;;;;;;;;;;;;;;;5057487;28;20359;-22
2022/06/04 14:24:05;;;;;;;;;;;;;;;;;;5056130;28;19966;-23
2022/06/04 14:26:32;;;;;;;;;;;;;;;;;;5056942;28;19909;-23
2022/06/04 14:29:00;;;;;;;;;;;;;;;;;;5051065;28;19928;-23
2022/06/04 14:31:29;;;;;;;;;;;;;;;;;;5059246;28;20003;-23
2022/06/04 14:33:56;;;;;;;;;;;;;;;;;;5077040;28;19912;-23
2022/06/04 14:36:23;;;;;;;;;;;;;;;;;;5058935;28;19912;-23
2022/06/04 14:38:49;;;;;;;;;;;;;;;;;;5076499;28;20273;-23
2022/06/04 14:41:16;;;;;;;;;;;;;;;;;;5076673;28;19908;-23
2022/06/04 14:43:43;;;;;;;;;;;;;;;;;;5058879;28;19974;-23
2022/06/04 14:46:11;;;;;;;;;;;;;;;;;;5076921;28;19916;-23
2022/06/04 14:48:38;;;;;;;;;;;;;;;;;;5076530;28;19956;-23
2022/06/04 14:51:05;;;;;;;;;;;;;;;;;;5076204;28;19920;-23
2022/06/04 14:53:32;;;;;;;;;;;;;;;;;;5077028;28;19920;-23
2022/06/04 14:56:00;;;;;;;;;;;;;;;;;;5058566;28;20469;-23
2022/06/04 14:58:26;;;;;;;;;;;;;;;;;;5076713;28;19920;-23
2022/06/04 15:00:53;;;;;;;;;;;;;;;;;;5059183;28;19909;-23
2022/06/04 15:03:20;;;;;;;;;;;;;;;;;;5080050;28;19970;-24
2022/06/04 15:05:47;;;;;;;;;;;;;;;;;;5062650;28;19912;-23
2022/06/04 15:08:14;;;;;;;;;;;;;;;;;;5079768;28;19982;-23
2022/06/04 15:10:41;;;;;;;;;;;;;;;;;;5062262;28;19909;-23
2022/06/04 15:13:08;;;;;;;;;;;;;;;;;;5079663;28;19971;-23
2022/06/04 15:15:35;;;;;;;;;;;;;;;;;;5079889;28;19913;-23
2022/06/04 15:18:08;;;;;;;;;;;;;;;;;;5062200;28;19908;-23
2022/06/04 15:20:35;;;;;;;;;;;;;;;;;;5062552;28;20274;-24
2022/06/04 15:23:02;;;;;;;;;;;;;;;;;;5080550;28;19913;-23
2022/06/04 15:25:29;;;;;;;;;;;;;;;;;;5080363;28;20003;-23
2022/06/04 15:27:58;;;;;;;;;;;;;;;;;;5079138;28;19909;-22
2022/06/04 15:36:13;;;;;;;;;;;;;;;;;;5051064;28;20311;-23
2022/06/04 15:38:41;;;;;;;;;;;;;;;;;;5079310;28;19940;-23
2022/06/04 15:41:08;;;;;;;;;;;;;;;;;;5079553;28;19919;-23
2022/06/04 15:43:34;;;;;;;;;;;;;;;;;;5062296;28;19913;-23
2022/06/04 15:46:01;;;;;;;;;;;;;;;;;;5079211;28;19908;-23
2022/06/04 15:48:28;;;;;;;;;;;;;;;;;;5079047;28;19941;-22
2022/06/04 15:56:24;;;;;;;;;;;;;;;;;;5079597;28;19962;-23
2022/06/04 15:58:50;;;;;;;;;;;;;;;;;;5078675;28;20007;-23
2022/06/04 16:01:17;;;;;;;;;;;;;;;;;;5078864;28;19912;-23
2022/06/04 16:03:44;;;;;;;;;;;;;;;;;;5079136;28;19912;-23
2022/06/04 16:06:11;;;;;;;;;;;;;;;;;;5079313;28;20247;-23
2022/06/04 16:08:38;;;;;;;;;;;;;;;;;;5078960;28;19999;-23
2022/06/04 16:11:05;;;;;;;;;;;;;;;;;;5078714;28;20270;-24
2022/06/04 16:13:32;;;;;;;;;;;;;;;;;;5078776;28;19942;-23
2022/06/04 16:16:01;;;;;;;;;;;;;;;;;;5061424;28;19916;-23
2022/06/04 16:32:27;;;;;;;;;;;;;;;;;;5078755;28;19926;-23
2022/06/04 16:48:44;;;;;;;;;;;;;;;;;;5077632;28;19939;-23
2022/06/04 16:51:10;;;;;;;;;;;;;;;;;;5078683;28;20255;-23
2022/06/04 16:56:22;;;;;;;;;;;;;;;;;;5079033;28;19966;-23
2022/06/04 17:07:18;;;;;;;;;;;;;;;;;;5486851;22;20398;-23
2022/06/04 17:09:45;;;;;;;;;;;;;;;;;;5056798;28;20267;-23
2022/06/04 17:12:12;;;;;;;;;;;;;;;;;;5057607;28;20083;-23
2022/06/04 17:14:39;;;;;;;;;;;;;;;;;;5057803;28;19928;-23
2022/06/04 17:17:06;;;;;;;;;;;;;;;;;;5039976;28;19920;-23
2022/06/04 17:19:33;;;;;;;;;;;;;;;;;;5057546;28;19917;-23
2022/06/04 17:22:00;;;;;;;;;;;;;;;;;;5057931;28;19909;-23
2022/06/04 17:24:27;;;;;;;;;;;;;;;;;;5057008;28;19913;-23
2022/06/04 17:26:55;;;;;;;;;;;;;;;;;;5058019;28;19970;-23
2022/06/04 17:29:22;;;;;;;;;;;;;;;;;;5040020;28;19919;-23
2022/06/04 17:31:50;;;;;;;;;;;;;;;;;;5057913;28;19939;-23
2022/06/04 17:37:08;;;;;;;;;;;;;;;;;;5057781;28;19982;-23
2022/06/04 17:39:35;;;;;;;;;;;;;;;;;;5057073;28;20310;-23
2022/06/04 17:42:02;;;;;;;;;;;;;;;;;;5040542;28;19916;-23
2022/06/04 17:44:29;;;;;;;;;;;;;;;;;;5039753;28;19912;-23
2022/06/04 17:46:55;;;;;;;;;;;;;;;;;;5057499;28;19913;-23
2022/06/04 17:49:22;;;;;;;;;;;;;;;;;;5057718;28;19920;-23
2022/06/04 17:51:50;;;;;;;;;;;;;;;;;;5057073;28;19998;-23
2022/06/04 17:54:17;;;;;;;;;;;;;;;;;;5057303;28;19913;-23
2022/06/04 17:56:45;;;;;;;;;;;;;;;;;;5056995;28;19916;-23
2022/06/04 17:59:12;;;;;;;;;;;;;;;;;;5039325;28;19943;-23
2022/06/04 18:01:39;;;;;;;;;;;;;;;;;;5056718;28;19967;-23
2022/06/04 18:04:06;;;;;;;;;;;;;;;;;;5057473;28;20220;-23
2022/06/04 18:06:33;;;;;;;;;;;;;;;;;;5039681;28;19939;-23
2022/06/04 18:08:59;;;;;;;;;;;;;;;;;;5056972;28;20346;-23
2022/06/04 18:11:26;;;;;;;;;;;;;;;;;;5057088;28;19909;-23
2022/06/04 18:13:53;;;;;;;;;;;;;;;;;;5056932;28;19912;-23
2022/06/04 18:16:19;;;;;;;;;;;;;;;;;;5057382;28;19916;-23
2022/06/04 18:18:46;;;;;;;;;;;;;;;;;;5056943;28;19926;-23
2022/06/04 18:21:12;;;;;;;;;;;;;;;;;;5057285;28;20308;-23
2022/06/04 18:23:40;;;;;;;;;;;;;;;;;;5039590;28;19917;-23
2022/06/04 18:26:06;;;;;;;;;;;;;;;;;;5057185;28;19909;-23
2022/06/04 18:28:34;;;;;;;;;;;;;;;;;;5056566;28;19999;-23
2022/06/04 18:31:01;;;;;;;;;;;;;;;;;;5039520;28;20004;-23
2022/06/04 18:33:28;;;;;;;;;;;;;;;;;;5056820;28;19913;-23
2022/06/04 18:35:54;;;;;;;;;;;;;;;;;;5059308;28;19982;-23
2022/06/04 18:38:21;;;;;;;;;;;;;;;;;;5042920;28;20358;-23
2022/06/04 18:40:48;;;;;;;;;;;;;;;;;;5061942;28;19930;-23
2022/06/04 18:54:27;;;;;;;;;;;;;;;;;;5060379;28;19924;-23
2022/06/04 18:56:54;;;;;;;;;;;;;;;;;;5060391;28;19921;-23
2022/06/04 18:59:22;;;;;;;;;;;;;;;;;;5060463;28;19912;-23
2022/06/04 19:01:48;;;;;;;;;;;;;;;;;;5060657;28;19908;-23
2022/06/04 19:04:18;;;;;;;;;;;;;;;;;;5060029;28;19924;-23
2022/06/04 19:06:45;;;;;;;;;;;;;;;;;;5060144;28;19915;-23
2022/06/04 19:09:12;;;;;;;;;;;;;;;;;;5059911;28;19916;-23
2022/06/04 19:14:25;;;;;;;;;;;;;;;;;;5060253;28;20401;-23
2022/06/04 19:16:52;;;;;;;;;;;;;;;;;;5060068;28;19927;-23
2022/06/04 19:19:23;;;;;;;;;;;;;;;;;;5060451;28;20016;-23
2022/06/04 19:24:37;;;;;;;;;;;;;;;;;;5059751;28;19924;-28
2022/06/04 19:27:04;;;;;;;;;;;;;;;;;;5059709;28;19909;-23
2022/06/04 19:29:31;;;;;;;;;;;;;;;;;;5059659;28;19969;-23
2022/06/04 19:32:00;;;;;;;;;;;;;;;;;;5042275;28;19920;-23
2022/06/04 19:34:26;;;;;;;;;;;;;;;;;;5059470;28;19991;-23
2022/06/04 19:36:54;;;;;;;;;;;;;;;;;;5059216;28;19924;-23
2022/06/04 19:39:21;;;;;;;;;;;;;;;;;;5041786;28;19920;-23
2022/06/04 19:41:49;;;;;;;;;;;;;;;;;;5059390;28;19909;-23
2022/06/04 19:44:19;;;;;;;;;;;;;;;;;;5059396;28;19919;-23
2022/06/04 19:46:46;;;;;;;;;;;;;;;;;;5040784;28;19909;-23
2022/06/04 19:49:14;;;;;;;;;;;;;;;;;;5041790;28;19913;-23
2022/06/04 19:51:42;;;;;;;;;;;;;;;;;;5059437;28;19912;-23
2022/06/04 19:56:54;;;;;;;;;;;;;;;;;;5058959;28;19927;-23
2022/06/04 19:59:21;;;;;;;;;;;;;;;;;;5058931;28;19940;-23
2022/06/04 20:01:48;;;;;;;;;;;;;;;;;;5059191;28;19909;-23
2022/06/04 20:04:15;;;;;;;;;;;;;;;;;;5058982;28;19913;-23
2022/06/04 20:09:26;;;;;;;;;;;;;;;;;;5059014;28;20314;-23
2022/06/04 20:11:53;;;;;;;;;;;;;;;;;;5058985;28;20247;-23
2022/06/04 20:14:21;;;;;;;;;;;;;;;;;;5059726;28;19912;-23
2022/06/04 20:16:48;;;;;;;;;;;;;;;;;;5058988;28;20354;-23